sensor_id;sensor_type;location;lat;lon;timestamp;temperature;humidity
2543;DHT22;1116;51.502;7.414;2022-09-28T00:00:02;9.90;99.90
2543;DHT22;1116;51.502;7.414;2022-09-28T00:02:35;10.00;99.90
2543;DHT22;1116;51.502;7.414;2022-09-28T00:05:07;10.00;99.90
2543;DHT22;1116;51.502;7.414;2022-09-28T00:07:42;10.00;99.90
2543;DHT22;1116;51.502;7.414;2022-09-28T00:10:13;10.00;99.90
2543;DHT22;1116;51.502;7.414;2022-09-28T00:12:49;10.00;99.90
2543;DHT22;1116;51.502;7.414;2022-09-28T00:15:22;10.00;99.90
2543;DHT22;1116;51.502;7.414;2022-09-28T00:17:54;10.00;99.90
2543;DHT22;1116;51.502;7.414;2022-09-28T00:20:24;10.00;99.90
2543;DHT22;1116;51.502;7.414;2022-09-28T00:22:58;9.90;99.90
2543;DHT22;1116;51.502;7.414;2022-09-28T00:25:29;9.90;99.90
2543;DHT22;1116;51.502;7.414;2022-09-28T00:28:00;9.90;99.90
2543;DHT22;1116;51.502;7.414;2022-09-28T00:30:31;10.00;99.90
2543;DHT22;1116;51.502;7.414;2022-09-28T00:33:03;10.00;99.90
2543;DHT22;1116;51.502;7.414;2022-09-28T00:35:33;10.00;99.90
2543;DHT22;1116;51.502;7.414;2022-09-28T00:38:07;9.90;99.90
2543;DHT22;1116;51.502;7.414;2022-09-28T00:40:37;9.90;99.90
2543;DHT22;1116;51.502;7.414;2022-09-28T00:43:16;10.00;99.90
2543;DHT22;1116;51.502;7.414;2022-09-28T00:45:53;9.90;99.90
2543;DHT22;1116;51.502;7.414;2022-09-28T00:48:27;10.00;99.90
2543;DHT22;1116;51.502;7.414;2022-09-28T00:51:03;10.00;99.90
2543;DHT22;1116;51.502;7.414;2022-09-28T00:53:38;10.00;99.90
2543;DHT22;1116;51.502;7.414;2022-09-28T00:56:13;10.10;99.90
2543;DHT22;1116;51.502;7.414;2022-09-28T00:58:48;10.00;99.90
2543;DHT22;1116;51.502;7.414;2022-09-28T01:01:21;10.00;99.90
2543;DHT22;1116;51.502;7.414;2022-09-28T01:03:53;10.00;99.90
2543;DHT22;1116;51.502;7.414;2022-09-28T01:06:26;10.00;99.90
2543;DHT22;1116;51.502;7.414;2022-09-28T01:09:03;10.00;99.90
2543;DHT22;1116;51.502;7.414;2022-09-28T01:11:35;9.90;99.90
2543;DHT22;1116;51.502;7.414;2022-09-28T01:14:09;9.90;99.90
2543;DHT22;1116;51.502;7.414;2022-09-28T01:16:45;9.80;99.90
2543;DHT22;1116;51.502;7.414;2022-09-28T01:22:34;9.70;99.90
2543;DHT22;1116;51.502;7.414;2022-09-28T01:25:24;9.70;99.90
2543;DHT22;1116;51.502;7.414;2022-09-28T01:28:05;9.70;99.90
2543;DHT22;1116;51.502;7.414;2022-09-28T01:30:44;9.70;99.90
2543;DHT22;1116;51.502;7.414;2022-09-28T01:33:21;9.60;99.90
2543;DHT22;1116;51.502;7.414;2022-09-28T01:35:57;9.70;99.90
2543;DHT22;1116;51.502;7.414;2022-09-28T01:38:32;9.70;99.90
2543;DHT22;1116;51.502;7.414;2022-09-28T01:41:06;9.70;99.90
2543;DHT22;1116;51.502;7.414;2022-09-28T01:43:44;9.70;99.90
2543;DHT22;1116;51.502;7.414;2022-09-28T01:46:20;9.70;99.90
2543;DHT22;1116;51.502;7.414;2022-09-28T01:48:56;9.70;99.90
2543;DHT22;1116;51.502;7.414;2022-09-28T01:51:31;9.70;99.90
2543;DHT22;1116;51.502;7.414;2022-09-28T01:54:09;9.90;99.90
2543;DHT22;1116;51.502;7.414;2022-09-28T01:56:45;9.80;99.90
2543;DHT22;1116;51.502;7.414;2022-09-28T01:59:25;9.80;99.90
2543;DHT22;1116;51.502;7.414;2022-09-28T02:02:01;9.80;99.90
2543;DHT22;1116;51.502;7.414;2022-09-28T02:04:38;9.80;99.90
2543;DHT22;1116;51.502;7.414;2022-09-28T02:07:13;9.80;99.90
2543;DHT22;1116;51.502;7.414;2022-09-28T02:09:49;9.80;99.90
2543;DHT22;1116;51.502;7.414;2022-09-28T02:12:25;9.70;99.90
2543;DHT22;1116;51.502;7.414;2022-09-28T02:15:10;9.70;99.90
2543;DHT22;1116;51.502;7.414;2022-09-28T02:17:44;9.80;99.90
2543;DHT22;1116;51.502;7.414;2022-09-28T02:20:16;9.80;99.90
2543;DHT22;1116;51.502;7.414;2022-09-28T02:22:48;9.80;99.90
2543;DHT22;1116;51.502;7.414;2022-09-28T02:25:25;9.90;99.90
2543;DHT22;1116;51.502;7.414;2022-09-28T02:28:00;9.90;99.90
2543;DHT22;1116;51.502;7.414;2022-09-28T02:30:37;9.90;99.90
2543;DHT22;1116;51.502;7.414;2022-09-28T02:33:11;9.80;99.90
2543;DHT22;1116;51.502;7.414;2022-09-28T02:35:42;9.90;99.90
2543;DHT22;1116;51.502;7.414;2022-09-28T02:38:14;9.80;99.90
2543;DHT22;1116;51.502;7.414;2022-09-28T02:40:55;9.90;99.90
2543;DHT22;1116;51.502;7.414;2022-09-28T02:43:36;9.90;99.90
2543;DHT22;1116;51.502;7.414;2022-09-28T02:46:17;9.90;99.90
2543;DHT22;1116;51.502;7.414;2022-09-28T02:49:00;9.90;99.90
2543;DHT22;1116;51.502;7.414;2022-09-28T02:51:59;9.90;99.90
2543;DHT22;1116;51.502;7.414;2022-09-28T02:54:53;9.90;99.90
2543;DHT22;1116;51.502;7.414;2022-09-28T02:57:35;9.80;99.90
2543;DHT22;1116;51.502;7.414;2022-09-28T03:00:13;10.30;99.90
2543;DHT22;1116;51.502;7.414;2022-09-28T03:02:51;9.80;99.90
2543;DHT22;1116;51.502;7.414;2022-09-28T03:05:31;9.80;99.90
2543;DHT22;1116;51.502;7.414;2022-09-28T03:08:10;9.80;99.90
2543;DHT22;1116;51.502;7.414;2022-09-28T03:10:46;9.80;99.90
2543;DHT22;1116;51.502;7.414;2022-09-28T03:13:21;9.90;99.90
2543;DHT22;1116;51.502;7.414;2022-09-28T03:16:06;9.80;99.90
2543;DHT22;1116;51.502;7.414;2022-09-28T03:18:40;9.80;99.90
2543;DHT22;1116;51.502;7.414;2022-09-28T03:21:12;9.80;99.90
2543;DHT22;1116;51.502;7.414;2022-09-28T03:23:42;9.70;99.90
2543;DHT22;1116;51.502;7.414;2022-09-28T03:26:14;9.80;99.90
2543;DHT22;1116;51.502;7.414;2022-09-28T03:28:46;9.80;99.90
2543;DHT22;1116;51.502;7.414;2022-09-28T03:31:17;9.90;99.90
2543;DHT22;1116;51.502;7.414;2022-09-28T03:33:51;9.90;99.90
2543;DHT22;1116;51.502;7.414;2022-09-28T03:36:22;9.80;99.90
2543;DHT22;1116;51.502;7.414;2022-09-28T03:38:53;9.80;99.90
2543;DHT22;1116;51.502;7.414;2022-09-28T03:41:24;9.80;99.90
2543;DHT22;1116;51.502;7.414;2022-09-28T03:43:56;9.80;99.90
2543;DHT22;1116;51.502;7.414;2022-09-28T03:46:27;9.70;99.90
2543;DHT22;1116;51.502;7.414;2022-09-28T03:49:00;9.70;99.90
2543;DHT22;1116;51.502;7.414;2022-09-28T03:51:31;9.70;99.90
2543;DHT22;1116;51.502;7.414;2022-09-28T03:54:02;9.70;99.90
2543;DHT22;1116;51.502;7.414;2022-09-28T03:56:33;9.70;99.90
2543;DHT22;1116;51.502;7.414;2022-09-28T03:59:04;9.70;99.90
2543;DHT22;1116;51.502;7.414;2022-09-28T04:01:34;9.80;99.90
2543;DHT22;1116;51.502;7.414;2022-09-28T04:04:10;9.70;99.90
2543;DHT22;1116;51.502;7.414;2022-09-28T04:06:41;9.70;99.90
2543;DHT22;1116;51.502;7.414;2022-09-28T04:09:14;9.70;99.90
2543;DHT22;1116;51.502;7.414;2022-09-28T04:11:46;9.70;99.90
2543;DHT22;1116;51.502;7.414;2022-09-28T04:14:31;9.70;99.90
2543;DHT22;1116;51.502;7.414;2022-09-28T04:17:02;9.60;99.90
2543;DHT22;1116;51.502;7.414;2022-09-28T04:19:38;9.60;99.90
2543;DHT22;1116;51.502;7.414;2022-09-28T04:22:10;9.50;99.90
2543;DHT22;1116;51.502;7.414;2022-09-28T04:24:41;9.50;99.90
2543;DHT22;1116;51.502;7.414;2022-09-28T04:27:13;9.40;99.90
2543;DHT22;1116;51.502;7.414;2022-09-28T04:29:56;9.50;99.90
2543;DHT22;1116;51.502;7.414;2022-09-28T04:32:28;9.50;99.90
2543;DHT22;1116;51.502;7.414;2022-09-28T04:35:01;9.50;99.90
2543;DHT22;1116;51.502;7.414;2022-09-28T04:37:34;9.50;99.90
2543;DHT22;1116;51.502;7.414;2022-09-28T04:40:06;9.50;99.90
2543;DHT22;1116;51.502;7.414;2022-09-28T04:42:37;9.50;99.90
2543;DHT22;1116;51.502;7.414;2022-09-28T04:45:09;9.50;99.90
2543;DHT22;1116;51.502;7.414;2022-09-28T04:47:40;9.50;99.90
2543;DHT22;1116;51.502;7.414;2022-09-28T04:50:13;9.50;99.90
2543;DHT22;1116;51.502;7.414;2022-09-28T04:52:47;9.50;99.90
2543;DHT22;1116;51.502;7.414;2022-09-28T04:55:18;9.70;99.90
2543;DHT22;1116;51.502;7.414;2022-09-28T04:57:52;9.30;99.90
2543;DHT22;1116;51.502;7.414;2022-09-28T05:00:23;9.60;99.90
2543;DHT22;1116;51.502;7.414;2022-09-28T05:02:54;9.60;99.90
2543;DHT22;1116;51.502;7.414;2022-09-28T05:05:31;9.70;99.90
2543;DHT22;1116;51.502;7.414;2022-09-28T05:08:03;9.60;99.90
2543;DHT22;1116;51.502;7.414;2022-09-28T05:10:34;9.90;99.90
2543;DHT22;1116;51.502;7.414;2022-09-28T05:13:07;9.60;99.90
2543;DHT22;1116;51.502;7.414;2022-09-28T05:15:39;9.30;99.90
2543;DHT22;1116;51.502;7.414;2022-09-28T05:18:10;9.90;99.90
2543;DHT22;1116;51.502;7.414;2022-09-28T05:20:46;9.60;99.90
2543;DHT22;1116;51.502;7.414;2022-09-28T05:23:17;9.70;99.90
2543;DHT22;1116;51.502;7.414;2022-09-28T05:25:48;9.60;99.90
2543;DHT22;1116;51.502;7.414;2022-09-28T05:28:25;9.40;99.90
2543;DHT22;1116;51.502;7.414;2022-09-28T05:30:57;9.60;99.90
2543;DHT22;1116;51.502;7.414;2022-09-28T05:33:30;9.60;99.90
2543;DHT22;1116;51.502;7.414;2022-09-28T05:36:08;9.70;99.90
2543;DHT22;1116;51.502;7.414;2022-09-28T05:38:39;9.70;99.90
2543;DHT22;1116;51.502;7.414;2022-09-28T05:41:13;9.70;99.90
2543;DHT22;1116;51.502;7.414;2022-09-28T05:43:45;9.70;99.90
2543;DHT22;1116;51.502;7.414;2022-09-28T05:46:16;9.70;99.90
2543;DHT22;1116;51.502;7.414;2022-09-28T05:48:49;9.70;99.90
2543;DHT22;1116;51.502;7.414;2022-09-28T05:51:23;9.60;99.90
2543;DHT22;1116;51.502;7.414;2022-09-28T05:53:54;9.50;99.90
2543;DHT22;1116;51.502;7.414;2022-09-28T05:56:32;9.60;99.90
2543;DHT22;1116;51.502;7.414;2022-09-28T05:59:03;9.90;99.90
2543;DHT22;1116;51.502;7.414;2022-09-28T06:01:34;9.60;99.90
2543;DHT22;1116;51.502;7.414;2022-09-28T06:04:05;9.70;99.90
2543;DHT22;1116;51.502;7.414;2022-09-28T06:06:39;9.70;99.90
2543;DHT22;1116;51.502;7.414;2022-09-28T06:09:10;9.80;99.90
2543;DHT22;1116;51.502;7.414;2022-09-28T06:11:41;9.80;99.90
2543;DHT22;1116;51.502;7.414;2022-09-28T06:14:15;9.80;99.90
2543;DHT22;1116;51.502;7.414;2022-09-28T06:16:46;9.80;99.90
2543;DHT22;1116;51.502;7.414;2022-09-28T06:19:17;9.80;99.90
2543;DHT22;1116;51.502;7.414;2022-09-28T06:21:51;9.80;99.90
2543;DHT22;1116;51.502;7.414;2022-09-28T06:24:21;10.30;99.90
2543;DHT22;1116;51.502;7.414;2022-09-28T06:26:52;9.80;99.90
2543;DHT22;1116;51.502;7.414;2022-09-28T06:29:23;10.10;99.90
2543;DHT22;1116;51.502;7.414;2022-09-28T06:31:54;9.90;99.90
2543;DHT22;1116;51.502;7.414;2022-09-28T06:34:25;9.90;99.90
2543;DHT22;1116;51.502;7.414;2022-09-28T06:36:59;9.90;99.90
2543;DHT22;1116;51.502;7.414;2022-09-28T06:39:31;10.00;99.90
2543;DHT22;1116;51.502;7.414;2022-09-28T06:42:02;10.00;99.90
2543;DHT22;1116;51.502;7.414;2022-09-28T06:44:33;10.10;99.90
2543;DHT22;1116;51.502;7.414;2022-09-28T06:47:04;10.10;99.90
2543;DHT22;1116;51.502;7.414;2022-09-28T06:49:37;10.10;99.90
2543;DHT22;1116;51.502;7.414;2022-09-28T06:52:10;10.00;99.90
2543;DHT22;1116;51.502;7.414;2022-09-28T06:54:44;10.00;99.90
2543;DHT22;1116;51.502;7.414;2022-09-28T06:57:15;10.00;99.90
2543;DHT22;1116;51.502;7.414;2022-09-28T06:59:46;10.00;99.90
2543;DHT22;1116;51.502;7.414;2022-09-28T07:02:17;10.10;99.90
2543;DHT22;1116;51.502;7.414;2022-09-28T07:04:49;10.10;99.90
2543;DHT22;1116;51.502;7.414;2022-09-28T07:07:23;10.10;99.90
2543;DHT22;1116;51.502;7.414;2022-09-28T07:09:54;10.10;99.90
2543;DHT22;1116;51.502;7.414;2022-09-28T07:12:27;10.10;99.90
2543;DHT22;1116;51.502;7.414;2022-09-28T07:14:59;10.20;99.90
2543;DHT22;1116;51.502;7.414;2022-09-28T07:17:30;10.20;99.90
2543;DHT22;1116;51.502;7.414;2022-09-28T07:20:14;10.10;99.90
2543;DHT22;1116;51.502;7.414;2022-09-28T07:22:51;10.20;99.90
2543;DHT22;1116;51.502;7.414;2022-09-28T07:25:24;10.20;99.90
2543;DHT22;1116;51.502;7.414;2022-09-28T07:27:58;10.20;99.90
2543;DHT22;1116;51.502;7.414;2022-09-28T07:30:31;10.20;99.90
2543;DHT22;1116;51.502;7.414;2022-09-28T07:33:06;10.30;99.90
2543;DHT22;1116;51.502;7.414;2022-09-28T07:35:37;10.10;99.90
2543;DHT22;1116;51.502;7.414;2022-09-28T07:38:11;10.50;99.90
2543;DHT22;1116;51.502;7.414;2022-09-28T07:40:42;10.10;99.90
2543;DHT22;1116;51.502;7.414;2022-09-28T07:43:25;10.00;99.90
2543;DHT22;1116;51.502;7.414;2022-09-28T07:46:00;9.90;99.90
2543;DHT22;1116;51.502;7.414;2022-09-28T07:48:32;9.90;99.90
2543;DHT22;1116;51.502;7.414;2022-09-28T07:51:07;10.00;99.90
2543;DHT22;1116;51.502;7.414;2022-09-28T07:53:40;10.00;99.90
2543;DHT22;1116;51.502;7.414;2022-09-28T07:56:15;10.00;99.90
2543;DHT22;1116;51.502;7.414;2022-09-28T07:58:47;10.00;99.90
2543;DHT22;1116;51.502;7.414;2022-09-28T08:01:25;10.00;99.90
2543;DHT22;1116;51.502;7.414;2022-09-28T08:03:58;10.00;99.90
2543;DHT22;1116;51.502;7.414;2022-09-28T08:06:29;10.00;99.90
2543;DHT22;1116;51.502;7.414;2022-09-28T08:09:03;10.10;99.90
2543;DHT22;1116;51.502;7.414;2022-09-28T08:11:34;10.10;99.90
2543;DHT22;1116;51.502;7.414;2022-09-28T08:14:05;10.10;99.90
2543;DHT22;1116;51.502;7.414;2022-09-28T08:16:37;10.10;99.90
2543;DHT22;1116;51.502;7.414;2022-09-28T08:19:10;10.10;99.90
2543;DHT22;1116;51.502;7.414;2022-09-28T08:21:41;10.40;99.90
2543;DHT22;1116;51.502;7.414;2022-09-28T08:24:16;10.20;99.90
2543;DHT22;1116;51.502;7.414;2022-09-28T08:26:47;10.30;99.90
2543;DHT22;1116;51.502;7.414;2022-09-28T08:29:18;10.40;99.90
2543;DHT22;1116;51.502;7.414;2022-09-28T08:31:49;10.50;99.90
2543;DHT22;1116;51.502;7.414;2022-09-28T08:34:20;10.90;99.90
2543;DHT22;1116;51.502;7.414;2022-09-28T08:36:50;10.60;99.90
2543;DHT22;1116;51.502;7.414;2022-09-28T08:39:25;10.80;99.90
2543;DHT22;1116;51.502;7.414;2022-09-28T08:42:11;10.90;99.90
2543;DHT22;1116;51.502;7.414;2022-09-28T08:44:48;11.50;99.90
2543;DHT22;1116;51.502;7.414;2022-09-28T08:47:23;11.30;99.90
2543;DHT22;1116;51.502;7.414;2022-09-28T08:50:13;11.20;99.90
2543;DHT22;1116;51.502;7.414;2022-09-28T08:52:52;11.10;99.90
2543;DHT22;1116;51.502;7.414;2022-09-28T08:55:29;11.10;99.90
2543;DHT22;1116;51.502;7.414;2022-09-28T08:58:10;11.10;99.90
2543;DHT22;1116;51.502;7.414;2022-09-28T09:00:45;11.00;99.90
2543;DHT22;1116;51.502;7.414;2022-09-28T09:03:20;11.00;99.90
2543;DHT22;1116;51.502;7.414;2022-09-28T09:05:59;11.00;99.90
2543;DHT22;1116;51.502;7.414;2022-09-28T09:08:40;11.00;99.90
2543;DHT22;1116;51.502;7.414;2022-09-28T09:11:30;11.00;99.90
2543;DHT22;1116;51.502;7.414;2022-09-28T09:14:18;11.10;99.90
2543;DHT22;1116;51.502;7.414;2022-09-28T09:16:56;11.10;99.90
2543;DHT22;1116;51.502;7.414;2022-09-28T09:19:34;11.10;99.90
2543;DHT22;1116;51.502;7.414;2022-09-28T09:22:15;11.20;99.90
2543;DHT22;1116;51.502;7.414;2022-09-28T09:24:49;11.20;99.90
2543;DHT22;1116;51.502;7.414;2022-09-28T09:27:46;11.20;99.90
2543;DHT22;1116;51.502;7.414;2022-09-28T09:30:20;11.30;99.90
2543;DHT22;1116;51.502;7.414;2022-09-28T09:33:12;11.40;99.90
2543;DHT22;1116;51.502;7.414;2022-09-28T09:36:07;11.40;99.90
2543;DHT22;1116;51.502;7.414;2022-09-28T09:38:50;11.50;99.90
2543;DHT22;1116;51.502;7.414;2022-09-28T09:41:36;11.70;99.90
2543;DHT22;1116;51.502;7.414;2022-09-28T09:44:36;11.70;99.90
2543;DHT22;1116;51.502;7.414;2022-09-28T09:47:14;11.80;99.90
2543;DHT22;1116;51.502;7.414;2022-09-28T09:49:50;12.00;99.90
2543;DHT22;1116;51.502;7.414;2022-09-28T09:52:29;12.00;99.90
2543;DHT22;1116;51.502;7.414;2022-09-28T09:55:14;11.90;99.90
2543;DHT22;1116;51.502;7.414;2022-09-28T09:57:56;11.80;99.90
2543;DHT22;1116;51.502;7.414;2022-09-28T10:00:33;11.60;99.90
2543;DHT22;1116;51.502;7.414;2022-09-28T10:03:04;11.40;99.90
2543;DHT22;1116;51.502;7.414;2022-09-28T10:05:36;11.20;99.90
2543;DHT22;1116;51.502;7.414;2022-09-28T10:08:15;11.20;99.90
2543;DHT22;1116;51.502;7.414;2022-09-28T10:10:49;11.20;99.90
2543;DHT22;1116;51.502;7.414;2022-09-28T10:13:21;11.20;99.90
2543;DHT22;1116;51.502;7.414;2022-09-28T10:15:55;11.20;99.90
2543;DHT22;1116;51.502;7.414;2022-09-28T10:18:27;11.60;99.90
2543;DHT22;1116;51.502;7.414;2022-09-28T10:20:58;11.50;99.90
2543;DHT22;1116;51.502;7.414;2022-09-28T10:23:32;11.70;99.90
2543;DHT22;1116;51.502;7.414;2022-09-28T10:26:09;11.80;99.90
2543;DHT22;1116;51.502;7.414;2022-09-28T10:28:46;12.00;99.90
2543;DHT22;1116;51.502;7.414;2022-09-28T10:31:39;12.10;98.90
2543;DHT22;1116;51.502;7.414;2022-09-28T10:34:12;12.10;90.80
2543;DHT22;1116;51.502;7.414;2022-09-28T10:36:50;12.10;90.00
2543;DHT22;1116;51.502;7.414;2022-09-28T10:39:29;12.00;90.60
2543;DHT22;1116;51.502;7.414;2022-09-28T10:42:06;11.90;90.80
2543;DHT22;1116;51.502;7.414;2022-09-28T10:44:49;12.00;88.30
2543;DHT22;1116;51.502;7.414;2022-09-28T10:47:26;12.00;84.20
2543;DHT22;1116;51.502;7.414;2022-09-28T10:49:58;12.10;86.70
2543;DHT22;1116;51.502;7.414;2022-09-28T10:52:32;12.10;86.20
2543;DHT22;1116;51.502;7.414;2022-09-28T10:55:25;12.10;75.80
2543;DHT22;1116;51.502;7.414;2022-09-28T10:57:58;12.20;77.60
2543;DHT22;1116;51.502;7.414;2022-09-28T11:00:32;12.20;70.00
2543;DHT22;1116;51.502;7.414;2022-09-28T11:03:17;12.20;64.30
2543;DHT22;1116;51.502;7.414;2022-09-28T11:05:59;12.10;63.70
2543;DHT22;1116;51.502;7.414;2022-09-28T11:08:37;12.10;59.10
2543;DHT22;1116;51.502;7.414;2022-09-28T11:11:10;12.20;57.50
2543;DHT22;1116;51.502;7.414;2022-09-28T11:13:46;12.20;65.40
2543;DHT22;1116;51.502;7.414;2022-09-28T11:16:22;12.20;57.10
2543;DHT22;1116;51.502;7.414;2022-09-28T11:19:02;12.20;59.10
2543;DHT22;1116;51.502;7.414;2022-09-28T11:21:40;12.30;58.80
2543;DHT22;1116;51.502;7.414;2022-09-28T11:24:20;12.40;56.50
2543;DHT22;1116;51.502;7.414;2022-09-28T11:26:55;12.50;51.80
2543;DHT22;1116;51.502;7.414;2022-09-28T11:29:34;12.50;50.00
2543;DHT22;1116;51.502;7.414;2022-09-28T11:32:10;12.60;51.50
2543;DHT22;1116;51.502;7.414;2022-09-28T11:34:47;12.70;50.10
2543;DHT22;1116;51.502;7.414;2022-09-28T11:37:53;12.80;48.70
2543;DHT22;1116;51.502;7.414;2022-09-28T11:40:47;12.80;44.70
2543;DHT22;1116;51.502;7.414;2022-09-28T11:43:33;12.80;44.00
2543;DHT22;1116;51.502;7.414;2022-09-28T11:46:19;12.80;43.30
2543;DHT22;1116;51.502;7.414;2022-09-28T11:48:58;12.80;42.10
2543;DHT22;1116;51.502;7.414;2022-09-28T11:51:35;12.70;40.30
2543;DHT22;1116;51.502;7.414;2022-09-28T11:54:15;12.70;41.90
2543;DHT22;1116;51.502;7.414;2022-09-28T11:56:49;12.70;42.60
2543;DHT22;1116;51.502;7.414;2022-09-28T11:59:27;12.70;42.40
2543;DHT22;1116;51.502;7.414;2022-09-28T12:02:08;12.70;46.20
2543;DHT22;1116;51.502;7.414;2022-09-28T12:04:44;13.20;44.30
2543;DHT22;1116;51.502;7.414;2022-09-28T12:07:23;12.80;42.70
2543;DHT22;1116;51.502;7.414;2022-09-28T12:09:58;12.80;43.00
2543;DHT22;1116;51.502;7.414;2022-09-28T12:12:34;12.90;42.80
2543;DHT22;1116;51.502;7.414;2022-09-28T12:15:15;12.90;42.20
2543;DHT22;1116;51.502;7.414;2022-09-28T12:17:50;13.10;39.60
2543;DHT22;1116;51.502;7.414;2022-09-28T12:20:25;13.00;42.60
2543;DHT22;1116;51.502;7.414;2022-09-28T12:23:04;13.20;41.40
2543;DHT22;1116;51.502;7.414;2022-09-28T12:25:40;13.20;38.60
2543;DHT22;1116;51.502;7.414;2022-09-28T12:28:20;13.20;36.30
2543;DHT22;1116;51.502;7.414;2022-09-28T12:30:57;13.50;36.30
2543;DHT22;1116;51.502;7.414;2022-09-28T12:33:29;13.30;37.40
2543;DHT22;1116;51.502;7.414;2022-09-28T12:36:08;13.30;32.50
2543;DHT22;1116;51.502;7.414;2022-09-28T12:39:03;13.40;31.10
2543;DHT22;1116;51.502;7.414;2022-09-28T12:42:18;13.40;31.60
2543;DHT22;1116;51.502;7.414;2022-09-28T12:45:07;13.30;33.70
2543;DHT22;1116;51.502;7.414;2022-09-28T12:48:02;13.20;38.30
2543;DHT22;1116;51.502;7.414;2022-09-28T12:50:43;12.90;37.80
2543;DHT22;1116;51.502;7.414;2022-09-28T12:53:38;13.30;38.80
2543;DHT22;1116;51.502;7.414;2022-09-28T12:56:24;13.30;32.50
2543;DHT22;1116;51.502;7.414;2022-09-28T12:59:13;13.20;34.60
2543;DHT22;1116;51.502;7.414;2022-09-28T13:05:04;13.20;32.40
2543;DHT22;1116;51.502;7.414;2022-09-28T13:07:46;13.10;34.50
2543;DHT22;1116;51.502;7.414;2022-09-28T13:10:27;13.20;39.20
2543;DHT22;1116;51.502;7.414;2022-09-28T13:13:23;12.90;40.30
2543;DHT22;1116;51.502;7.414;2022-09-28T13:15:59;12.90;42.10
2543;DHT22;1116;51.502;7.414;2022-09-28T13:18:39;12.80;43.70
2543;DHT22;1116;51.502;7.414;2022-09-28T13:21:24;12.70;47.90
2543;DHT22;1116;51.502;7.414;2022-09-28T13:23:59;12.70;50.80
2543;DHT22;1116;51.502;7.414;2022-09-28T13:26:53;12.70;50.10
2543;DHT22;1116;51.502;7.414;2022-09-28T13:29:31;12.90;54.80
2543;DHT22;1116;51.502;7.414;2022-09-28T13:32:07;12.70;59.30
2543;DHT22;1116;51.502;7.414;2022-09-28T13:34:39;12.80;57.10
2543;DHT22;1116;51.502;7.414;2022-09-28T13:37:19;12.80;54.80
2543;DHT22;1116;51.502;7.414;2022-09-28T13:39:52;12.80;56.80
2543;DHT22;1116;51.502;7.414;2022-09-28T13:42:53;12.90;54.90
2543;DHT22;1116;51.502;7.414;2022-09-28T13:45:48;12.90;56.50
2543;DHT22;1116;51.502;7.414;2022-09-28T13:48:36;13.00;53.70
2543;DHT22;1116;51.502;7.414;2022-09-28T13:51:30;13.10;52.60
2543;DHT22;1116;51.502;7.414;2022-09-28T13:54:40;13.20;51.80
2543;DHT22;1116;51.502;7.414;2022-09-28T13:57:22;13.20;46.80
2543;DHT22;1116;51.502;7.414;2022-09-28T14:00:06;13.10;49.60
2543;DHT22;1116;51.502;7.414;2022-09-28T14:02:47;12.90;47.50
2543;DHT22;1116;51.502;7.414;2022-09-28T14:05:44;13.30;46.80
2543;DHT22;1116;51.502;7.414;2022-09-28T14:08:30;13.60;53.00
2543;DHT22;1116;51.502;7.414;2022-09-28T14:11:38;13.80;40.70
2543;DHT22;1116;51.502;7.414;2022-09-28T14:14:43;14.00;44.70
2543;DHT22;1116;51.502;7.414;2022-09-28T14:17:43;14.20;40.40
2543;DHT22;1116;51.502;7.414;2022-09-28T14:20:23;14.20;36.90
2543;DHT22;1116;51.502;7.414;2022-09-28T14:23:13;14.20;37.60
2543;DHT22;1116;51.502;7.414;2022-09-28T14:26:15;14.10;37.40
2543;DHT22;1116;51.502;7.414;2022-09-28T14:29:03;14.30;34.20
2543;DHT22;1116;51.502;7.414;2022-09-28T14:31:40;14.10;32.90
2543;DHT22;1116;51.502;7.414;2022-09-28T14:34:43;14.10;35.40
2543;DHT22;1116;51.502;7.414;2022-09-28T14:37:19;14.00;33.30
2543;DHT22;1116;51.502;7.414;2022-09-28T14:40:14;13.90;31.70
2543;DHT22;1116;51.502;7.414;2022-09-28T14:43:19;13.90;32.40
2543;DHT22;1116;51.502;7.414;2022-09-28T14:46:27;13.90;34.10
2543;DHT22;1116;51.502;7.414;2022-09-28T14:48:59;13.90;33.70
2543;DHT22;1116;51.502;7.414;2022-09-28T14:52:02;13.80;36.20
2543;DHT22;1116;51.502;7.414;2022-09-28T14:54:49;13.70;35.10
2543;DHT22;1116;51.502;7.414;2022-09-28T14:57:24;13.40;34.10
2543;DHT22;1116;51.502;7.414;2022-09-28T14:59:57;13.50;35.40
2543;DHT22;1116;51.502;7.414;2022-09-28T15:02:31;13.50;34.90
2543;DHT22;1116;51.502;7.414;2022-09-28T15:05:11;13.40;39.60
2543;DHT22;1116;51.502;7.414;2022-09-28T15:07:48;13.40;39.30
2543;DHT22;1116;51.502;7.414;2022-09-28T15:10:27;13.40;38.30
2543;DHT22;1116;51.502;7.414;2022-09-28T15:13:02;13.40;36.20
2543;DHT22;1116;51.502;7.414;2022-09-28T15:15:36;13.50;36.80
2543;DHT22;1116;51.502;7.414;2022-09-28T15:18:26;13.50;38.20
2543;DHT22;1116;51.502;7.414;2022-09-28T15:21:00;13.30;45.20
2543;DHT22;1116;51.502;7.414;2022-09-28T15:23:39;13.20;46.50
2543;DHT22;1116;51.502;7.414;2022-09-28T15:26:21;13.30;46.50
2543;DHT22;1116;51.502;7.414;2022-09-28T15:28:54;13.30;47.60
2543;DHT22;1116;51.502;7.414;2022-09-28T15:31:26;13.30;41.40
2543;DHT22;1116;51.502;7.414;2022-09-28T15:33:58;13.30;40.70
2543;DHT22;1116;51.502;7.414;2022-09-28T15:36:42;13.40;39.70
2543;DHT22;1116;51.502;7.414;2022-09-28T15:39:19;13.40;38.30
2543;DHT22;1116;51.502;7.414;2022-09-28T15:41:51;13.40;37.50
2543;DHT22;1116;51.502;7.414;2022-09-28T15:44:29;13.40;36.90
2543;DHT22;1116;51.502;7.414;2022-09-28T15:47:08;13.30;37.90
2543;DHT22;1116;51.502;7.414;2022-09-28T15:49:45;13.20;37.70
2543;DHT22;1116;51.502;7.414;2022-09-28T15:52:27;13.20;40.00
2543;DHT22;1116;51.502;7.414;2022-09-28T15:55:18;13.50;40.50
2543;DHT22;1116;51.502;7.414;2022-09-28T15:58:04;13.20;44.30
2543;DHT22;1116;51.502;7.414;2022-09-28T16:00:37;13.20;44.50
2543;DHT22;1116;51.502;7.414;2022-09-28T16:03:22;13.00;50.70
2543;DHT22;1116;51.502;7.414;2022-09-28T16:06:05;13.10;52.60
2543;DHT22;1116;51.502;7.414;2022-09-28T16:08:39;13.00;53.90
2543;DHT22;1116;51.502;7.414;2022-09-28T16:11:19;13.00;54.30
2543;DHT22;1116;51.502;7.414;2022-09-28T16:13:56;13.20;55.80
2543;DHT22;1116;51.502;7.414;2022-09-28T16:16:34;12.90;54.90
2543;DHT22;1116;51.502;7.414;2022-09-28T16:19:21;12.90;52.10
2543;DHT22;1116;51.502;7.414;2022-09-28T16:21:56;12.80;50.30
2543;DHT22;1116;51.502;7.414;2022-09-28T16:24:32;12.80;51.70
2543;DHT22;1116;51.502;7.414;2022-09-28T16:27:21;12.80;53.20
2543;DHT22;1116;51.502;7.414;2022-09-28T16:30:13;12.70;49.60
2543;DHT22;1116;51.502;7.414;2022-09-28T16:32:52;12.70;49.60
2543;DHT22;1116;51.502;7.414;2022-09-28T16:35:26;12.60;51.00
2543;DHT22;1116;51.502;7.414;2022-09-28T16:38:09;12.60;51.40
2543;DHT22;1116;51.502;7.414;2022-09-28T16:40:43;12.60;48.90
2543;DHT22;1116;51.502;7.414;2022-09-28T16:43:21;12.90;48.50
2543;DHT22;1116;51.502;7.414;2022-09-28T16:45:54;12.50;49.70
2543;DHT22;1116;51.502;7.414;2022-09-28T16:48:27;12.50;49.00
2543;DHT22;1116;51.502;7.414;2022-09-28T16:50:59;12.80;46.70
2543;DHT22;1116;51.502;7.414;2022-09-28T16:53:30;12.40;48.70
2543;DHT22;1116;51.502;7.414;2022-09-28T16:56:13;12.40;48.50
2543;DHT22;1116;51.502;7.414;2022-09-28T16:58:48;12.40;45.80
2543;DHT22;1116;51.502;7.414;2022-09-28T17:01:20;12.30;44.30
2543;DHT22;1116;51.502;7.414;2022-09-28T17:03:51;12.30;44.30
2543;DHT22;1116;51.502;7.414;2022-09-28T17:06:22;12.30;44.30
2543;DHT22;1116;51.502;7.414;2022-09-28T17:08:54;12.20;45.10
2543;DHT22;1116;51.502;7.414;2022-09-28T17:11:27;12.50;45.10
2543;DHT22;1116;51.502;7.414;2022-09-28T17:14:02;12.20;44.20
2543;DHT22;1116;51.502;7.414;2022-09-28T17:16:36;12.10;45.00
2543;DHT22;1116;51.502;7.414;2022-09-28T17:19:28;12.10;44.20